プンタアレナス の空港の天気 - METARとTAF

プンタアレナス空港 ( SCCI / PUQ ) - チリ プンタアレナス
飛行場実況気象(Metar)
観測時間07/28 22:00 CLT (07/29 02:00 UTC)
風向・風速北北西 6m/s
視程10km以上
天気現象
全天の4割程度の雲 雲底高度 1220m
全天の8割程度の雲 雲底高度 2440m
気温9℃
湿度66%
気圧1008hPa
METARSCCI 290200Z 33011KT 9999 SCT040 BKN080 09/03 Q1008 NOSIG
過去の天気等 Google飛行場航空写真 Wunderground天気予報

過去48時間のMETAR

飛行場予報(TAF)
発表時間: 7/28 18:10 CLT (7/28 22:10 UTC)
予報対象時間: 28日20時 CLT ~ 29日20時 CLT
風向・風速北北西 5m/s 瞬間風速 10m/s
視程10km以上
少しの雲 雲底高度 1370m
29日3時 CLT ~ 29日5時 CLT に徐々に
全天の4割程度の雲 雲底高度 980m
全天の8割程度の雲 雲底高度 1520m
29日4時 CLT ~ 29日8時 CLT に 確率 30% で一時的に
視程8000m
天気現象弱い雨
全天の8割程度の雲 雲底高度 1070m
29日9時 CLT ~ 29日11時 CLT に徐々に
風向・風速西北西 13m/s 瞬間風速 18m/s
全天の4割程度の雲 雲底高度 1220m
29日14時 CLT ~ 29日19時 CLT に 確率 40% で一時的に
風向・風速西 18m/s 瞬間風速 23m/s
視程8000m
天気現象弱いしゅう雨
全天の8割程度の雲 雲底高度 760m
TAF SCCI 282210Z 2900/3000 33010G20KT 9999 FEW045 TN04/2922Z TX07/2918Z
BECMG 2907/2909 SCT032 BKN050
PROB30 TEMPO 2908/2912 8000 -RA BKN035
BECMG 2913/2915 29025G35KT SCT040
PROB40 TEMPO 2918/2923 27035G45KT 8000 -SHRA BKN025